Time;durP1;ratioP1;P1;durP2;ratioP2;P2;SDS_P1;SDS_P2;PMS_P1;PMS_P2;Temp;Humidity;BMP_temperature;BMP_pressure;BME280_temperature;BME280_humidity;BME280_pressure;Samples;Min_cycle;Max_cycle;Signal;HPM_P1;HPM_P2
2022/01/19 00:01:03;;;;;;;8.80;4.63;;;5.30;99.90;;;;;;5114191;28;20509;-72
2022/01/19 00:03:29;;;;;;;6.50;3.90;;;5.40;99.90;;;;;;5114054;28;20032;-73
2022/01/19 00:05:54;;;;;;;8.90;4.20;;;5.40;99.90;;;;;;5114041;28;20019;-73
2022/01/19 00:08:21;;;;;;;5.47;3.60;;;5.40;99.90;;;;;;5112960;28;20069;-73
2022/01/19 00:10:49;;;;;;;7.57;4.38;;;5.50;99.90;;;;;;5121431;28;20032;-72
2022/01/19 00:13:16;;;;;;;8.10;4.25;;;5.60;99.90;;;;;;5120504;28;20035;-73
2022/01/19 00:15:42;;;;;;;9.70;4.82;;;5.70;99.90;;;;;;5112550;28;20024;-73
2022/01/19 00:18:08;;;;;;;7.45;4.20;;;5.70;99.90;;;;;;5112513;28;20479;-73
2022/01/19 00:20:34;;;;;;;6.63;3.77;;;5.80;99.90;;;;;;5113793;28;20072;-72
2022/01/19 00:23:01;;;;;;;;;;;5.70;99.90;;;;;;5114062;28;20281;-72
2022/01/19 00:25:27;;;;;;;9.85;4.13;;;5.50;99.90;;;;;;5112007;28;20014;-71
2022/01/19 00:27:52;;;;;;;7.25;3.97;;;5.50;99.90;;;;;;5113581;28;20020;-72
2022/01/19 00:30:18;;;;;;;11.20;4.20;;;5.60;99.90;;;;;;5112034;28;20019;-71
2022/01/19 00:32:44;;;;;;;7.18;4.47;;;5.50;99.90;;;;;;5112288;28;20035;-72
2022/01/19 00:35:11;;;;;;;9.23;4.55;;;5.50;99.90;;;;;;5112052;28;20042;-72
2022/01/19 00:37:38;;;;;;;7.88;3.80;;;5.50;99.90;;;;;;5114247;28;20114;-72
2022/01/19 00:40:05;;;;;;;8.07;3.90;;;5.50;99.90;;;;;;5112415;28;20077;-72
2022/01/19 00:42:30;;;;;;;10.98;4.35;;;5.40;99.90;;;;;;5112135;28;20031;-72
2022/01/19 00:44:57;;;;;;;7.20;3.97;;;5.30;99.90;;;;;;5112097;28;20036;-72
2022/01/19 00:47:23;;;;;;;8.55;3.95;;;5.40;99.90;;;;;;5113868;28;20495;-69
2022/01/19 00:49:49;;;;;;;8.05;4.15;;;5.40;99.90;;;;;;5113128;28;20024;-68
2022/01/19 00:52:15;;;;;;;9.73;3.90;;;5.30;99.90;;;;;;5113586;28;20020;-68
2022/01/19 00:54:41;;;;;;;8.30;4.83;;;5.20;99.90;;;;;;5117364;28;20035;-69
2022/01/19 00:57:08;;;;;;;;;;;5.20;99.90;;;;;;5116345;28;20499;-68
2022/01/19 00:59:34;;;;;;;8.80;4.55;;;5.10;99.90;;;;;;5112182;28;19969;-69
2022/01/19 01:02:00;;;;;;;7.33;3.83;;;5.00;99.90;;;;;;5111521;28;20108;-69
2022/01/19 01:04:26;;;;;;;8.52;4.55;;;4.90;99.90;;;;;;5111522;28;20339;-69
2022/01/19 01:06:52;;;;;;;7.07;4.13;;;4.80;99.90;;;;;;5113085;28;20027;-68
2022/01/19 01:09:18;;;;;;;7.78;4.53;;;4.90;99.90;;;;;;5111675;28;20020;-69
2022/01/19 01:11:57;;;;;;;8.93;4.43;;;4.90;99.90;;;;;;5113326;28;20475;-70
2022/01/19 01:19:59;;;;;;;7.18;4.50;;;4.60;99.90;;;;;;5073269;28;20035;-69
2022/01/19 01:22:25;;;;;;;7.15;4.28;;;4.60;99.90;;;;;;5113368;28;20024;-69
2022/01/19 01:24:51;;;;;;;8.77;4.90;;;4.50;99.90;;;;;;5112975;28;20020;-69
2022/01/19 01:27:17;;;;;;;6.95;4.60;;;4.50;99.90;;;;;;5114983;28;20031;-69
2022/01/19 01:29:42;;;;;;;7.68;4.35;;;4.40;99.90;;;;;;5116687;28;20026;-68
2022/01/19 01:32:09;;;;;;;9.47;4.40;;;4.50;99.90;;;;;;5115088;28;20019;-67
2022/01/19 01:34:35;;;;;;;11.20;4.95;;;4.60;99.90;;;;;;5116933;28;20076;-68
2022/01/19 01:37:01;;;;;;;11.73;4.97;;;4.60;99.90;;;;;;5116478;28;20495;-67
2022/01/19 01:39:26;;;;;;;8.00;4.85;;;4.40;99.90;;;;;;5114988;28;20032;-68
2022/01/19 01:41:52;;;;;;;11.27;5.60;;;4.40;99.90;;;;;;5116556;28;20024;-68
2022/01/19 01:44:18;;;;;;;14.43;5.93;;;4.30;99.90;;;;;;5115807;28;20581;-68
2022/01/19 01:46:48;;;;;;;9.37;5.30;;;4.20;99.90;;;;;;5116355;28;20027;-67
2022/01/19 01:49:44;;;;;;;11.93;6.38;;;4.20;99.90;;;;;;5115994;28;20043;-68
2022/01/19 01:54:47;;;;;;;9.85;5.28;;;4.20;99.90;;;;;;5115804;28;20081;-68
2022/01/19 01:57:13;;;;;;;12.27;5.70;;;4.10;99.90;;;;;;5115949;28;20418;-68
2022/01/19 01:59:38;;;;;;;10.03;5.53;;;4.20;99.90;;;;;;5115890;28;20027;-69
2022/01/19 02:02:04;;;;;;;10.60;5.33;;;4.10;99.90;;;;;;5114591;28;20503;-68
2022/01/19 02:04:33;;;;;;;9.73;5.07;;;4.00;99.90;;;;;;5114877;28;20077;-69
2022/01/19 02:09:46;;;;;;;8.77;5.35;;;3.90;99.90;;;;;;5116104;28;20026;-68
2022/01/19 02:23:23;;;;;;;11.10;5.25;;;3.80;99.90;;;;;;5125110;28;20046;-68
2022/01/19 02:25:52;;;;;;;10.38;5.20;;;3.80;99.90;;;;;;5115837;28;20018;-68
2022/01/19 02:42:08;;;;;;;10.18;5.55;;;3.60;99.90;;;;;;5115955;28;20190;-69
2022/01/19 02:49:43;;;;;;;8.00;5.40;;;3.60;99.90;;;;;;5116716;28;20055;-69
2022/01/19 02:52:09;;;;;;;11.50;6.35;;;3.60;99.90;;;;;;5115082;28;20023;-69
2022/01/19 02:54:35;;;;;;;17.05;6.40;;;3.60;99.90;;;;;;5115386;28;20028;-69
2022/01/19 02:57:02;;;;;;;12.23;6.32;;;3.60;99.90;;;;;;5115411;28;20138;-69
2022/01/19 03:10:12;;;;;;;12.43;6.30;;;3.50;99.90;;;;;;5117152;28;20076;-69
2022/01/19 03:12:38;;;;;;;9.80;6.17;;;3.40;99.90;;;;;;5115349;28;20024;-69
2022/01/19 03:15:06;;;;;;;9.33;5.77;;;3.50;99.90;;;;;;5113867;28;20084;-68
2022/01/19 03:17:32;;;;;;;11.18;5.82;;;3.50;99.90;;;;;;5117724;28;20106;-69
2022/01/19 03:19:57;;;;;;;13.53;6.53;;;3.50;99.90;;;;;;5116159;28;20100;-69
2022/01/19 03:22:29;;;;;;;9.80;6.50;;;3.50;99.90;;;;;;5113782;28;20019;-68
2022/01/19 03:24:55;;;;;;;10.88;5.93;;;3.60;99.90;;;;;;5114197;28;20022;-68
2022/01/19 03:27:21;;;;;;;10.83;6.43;;;3.50;99.90;;;;;;5113976;28;20174;-68
2022/01/19 03:29:46;;;;;;;8.90;5.97;;;3.40;99.90;;;;;;5112992;28;20440;-69
2022/01/19 03:32:13;;;;;;;12.60;6.50;;;3.40;99.90;;;;;;5114506;28;20020;-68
2022/01/19 03:34:41;;;;;;;11.80;6.45;;;3.40;99.90;;;;;;5114067;28;20020;-68
2022/01/19 03:37:08;;;;;;;13.70;6.20;;;3.40;99.90;;;;;;5112940;28;20092;-68
2022/01/19 03:39:34;;;;;;;13.68;6.00;;;3.30;99.90;;;;;;5113889;28;20031;-68
2022/01/19 03:42:00;;;;;;;24.95;8.45;;;3.30;99.90;;;;;;5113925;28;20032;-67
2022/01/19 03:44:26;;;;;;;11.90;6.45;;;3.30;99.90;;;;;;5112545;28;20047;-69
2022/01/19 03:47:00;;;;;;;11.00;6.72;;;3.30;99.90;;;;;;5114635;28;20094;-69
2022/01/19 03:49:28;;;;;;;12.93;6.65;;;3.30;99.90;;;;;;5115067;28;20082;-68
2022/01/19 03:51:58;;;;;;;13.85;7.15;;;3.30;99.90;;;;;;5114466;28;20429;-69
2022/01/19 03:54:29;;;;;;;20.75;7.78;;;3.30;99.90;;;;;;5114669;28;20024;-69
2022/01/19 03:56:55;;;;;;;10.27;6.25;;;3.30;99.90;;;;;;5113541;28;20384;-68
2022/01/19 03:59:21;;;;;;;11.07;6.00;;;3.20;99.90;;;;;;5113687;28;20024;-69
2022/01/19 04:01:47;;;;;;;12.85;6.32;;;3.30;99.90;;;;;;5113532;28;20070;-69
2022/01/19 04:07:08;;;;;;;13.25;6.55;;;3.30;99.90;;;;;;5113881;28;20544;-68
2022/01/19 04:09:40;;;;;;;13.15;6.65;;;3.30;99.90;;;;;;5113443;28;20020;-68
2022/01/19 04:12:08;;;;;;;12.82;6.55;;;3.20;99.90;;;;;;5112142;28;20024;-68
2022/01/19 04:14:34;;;;;;;14.43;7.75;;;3.30;99.90;;;;;;5111906;28;20080;-70
2022/01/19 04:17:06;;;;;;;14.50;6.85;;;3.30;99.90;;;;;;5112340;28;20031;-68
2022/01/19 04:19:36;;;;;;;12.25;6.68;;;3.30;99.90;;;;;;5113882;28;20038;-68
2022/01/19 04:22:04;;;;;;;10.85;6.30;;;3.40;99.90;;;;;;5113673;28;20119;-69
2022/01/19 04:24:31;;;;;;;10.02;6.68;;;3.30;99.90;;;;;;5113258;28;20051;-68
2022/01/19 04:27:44;;;;;;;9.90;7.03;;;3.40;99.90;;;;;;5113294;28;20024;-68
2022/01/19 04:29:50;;;;;;;12.77;6.70;;;3.40;99.90;;;;;;5102171;28;20028;-69
2022/01/19 04:32:20;;;;;;;11.68;6.95;;;3.60;99.90;;;;;;5113347;28;20016;-68
2022/01/19 04:34:48;;;;;;;10.02;5.82;;;3.50;99.90;;;;;;5113325;28;20054;-68
2022/01/19 05:01:42;;;;;;;13.43;6.60;;;2.70;99.90;;;;;;5114166;28;20039;-67
2022/01/19 05:04:35;;;;;;;;;;;2.70;99.90;;;;;;5115837;28;20028;-68
2022/01/19 05:07:13;;;;;;;11.57;6.07;;;2.60;99.90;;;;;;5116351;28;20364;-68
2022/01/19 05:09:57;;;;;;;12.80;6.65;;;2.60;99.90;;;;;;5115617;28;20384;-70
2022/01/19 05:15:08;;;;;;;13.10;6.20;;;2.50;99.90;;;;;;5117144;28;20096;-69
2022/01/19 05:17:36;;;;;;;;;;;2.70;99.90;;;;;;5115824;28;20365;-68
2022/01/19 05:20:06;;;;;;;9.30;5.70;;;2.70;99.90;;;;;;5114368;28;19917;-69
2022/01/19 05:22:31;;;;;;;8.88;5.47;;;2.60;99.90;;;;;;5115359;28;20019;-70
2022/01/19 05:24:57;;;;;;;12.80;6.23;;;2.60;99.90;;;;;;5116350;27;20079;-71
2022/01/19 05:27:23;;;;;;;10.93;6.40;;;2.50;99.90;;;;;;5114953;28;20647;-67
2022/01/19 05:29:49;;;;;;;13.37;7.20;;;2.40;99.90;;;;;;5116314;28;20015;-67
2022/01/19 05:32:15;;;;;;;12.98;7.07;;;2.40;99.90;;;;;;5116169;28;20495;-68
2022/01/19 05:34:41;;;;;;;10.82;7.05;;;2.40;99.90;;;;;;5116163;28;20051;-66
2022/01/19 05:37:07;;;;;;;12.57;7.38;;;2.50;99.90;;;;;;5116112;28;20023;-65
2022/01/19 05:39:32;;;;;;;18.87;8.87;;;2.40;99.90;;;;;;5122398;28;20072;-67
2022/01/19 05:41:58;;;;;;;14.17;8.13;;;2.40;99.90;;;;;;5119811;28;20030;-66
2022/01/19 05:44:24;;;;;;;15.18;8.32;;;2.20;99.90;;;;;;5114545;28;20052;-67
2022/01/19 05:46:49;;;;;;;13.47;7.83;;;2.10;99.90;;;;;;5114593;28;20496;-66
2022/01/19 05:49:15;;;;;;;13.97;7.87;;;2.00;99.90;;;;;;5114552;28;20529;-66
2022/01/19 05:51:41;;;;;;;15.40;8.48;;;1.90;99.90;;;;;;5115872;28;20015;-66
2022/01/19 05:54:07;;;;;;;12.87;7.90;;;1.80;99.90;;;;;;5114304;28;20028;-67
2022/01/19 05:56:33;;;;;;;13.63;8.68;;;1.80;99.90;;;;;;5115806;28;20020;-66
2022/01/19 05:58:58;;;;;;;14.48;8.18;;;1.70;99.90;;;;;;5114312;28;20034;-66
2022/01/19 06:01:24;;;;;;;14.87;8.50;;;1.70;99.90;;;;;;5115571;28;20495;-66
2022/01/19 06:03:51;;;;;;;18.70;8.95;;;1.60;99.90;;;;;;5115449;28;20027;-66
2022/01/19 06:06:17;;;;;;;16.25;9.75;;;1.60;99.90;;;;;;5115517;28;20543;-66
2022/01/19 06:08:45;;;;;;;16.30;9.75;;;1.50;99.90;;;;;;5115689;28;20023;-66
2022/01/19 06:11:11;;;;;;;17.15;9.77;;;1.40;99.90;;;;;;5115601;28;20027;-66
2022/01/19 06:13:37;;;;;;;17.73;9.68;;;1.40;99.90;;;;;;5115118;28;20430;-66
2022/01/19 06:16:03;;;;;;;17.65;9.43;;;1.40;99.90;;;;;;5115724;28;20055;-66
2022/01/19 06:18:29;;;;;;;19.88;11.07;;;1.30;99.90;;;;;;5114977;28;20019;-66
2022/01/19 06:20:55;;;;;;;19.73;9.77;;;1.30;99.90;;;;;;5115692;28;20028;-67
2022/01/19 06:23:21;;;;;;;17.73;9.80;;;1.30;99.90;;;;;;5115359;28;20078;-66
2022/01/19 06:25:47;;;;;;;19.45;9.98;;;1.30;99.90;;;;;;5115563;28;20039;-66
2022/01/19 06:28:12;;;;;;;21.48;10.63;;;1.20;99.90;;;;;;5114098;28;20064;-66
2022/01/19 06:30:38;;;;;;;18.43;10.50;;;1.20;99.90;;;;;;5115298;28;20072;-64
2022/01/19 06:33:04;;;;;;;17.03;10.33;;;1.30;99.90;;;;;;5115501;28;20392;-67
2022/01/19 06:35:30;;;;;;;14.73;10.10;;;1.30;99.90;;;;;;5115183;28;20388;-67
2022/01/19 06:37:56;;;;;;;21.73;10.83;;;1.30;99.90;;;;;;5114085;28;20172;-67
2022/01/19 06:40:25;;;;;;;15.80;10.33;;;1.30;99.90;;;;;;5112700;28;20168;-65
2022/01/19 06:42:53;;;;;;;18.63;10.57;;;1.30;99.90;;;;;;5113639;28;20288;-65
2022/01/19 06:45:22;;;;;;;21.70;11.05;;;1.40;99.90;;;;;;5114955;28;20031;-69
2022/01/19 06:47:48;;;;;;;18.25;10.05;;;1.50;99.90;;;;;;5115323;28;20357;-66
2022/01/19 06:50:18;;;;;;;18.07;10.23;;;1.40;99.90;;;;;;5115700;28;20103;-65
2022/01/19 06:52:44;;;;;;;19.02;9.93;;;1.30;99.90;;;;;;5115890;28;20090;-66
2022/01/19 06:55:10;;;;;;;19.08;9.55;;;1.20;99.90;;;;;;5113768;28;20032;-66
2022/01/19 06:57:36;;;;;;;17.80;10.70;;;1.20;99.90;;;;;;5114929;28;20031;-66
2022/01/19 07:00:03;;;;;;;16.17;10.73;;;1.30;99.90;;;;;;5113486;28;20020;-66
2022/01/19 07:02:29;;;;;;;16.77;9.77;;;1.30;99.90;;;;;;5114480;28;20011;-66
2022/01/19 07:04:55;;;;;;;20.80;10.70;;;1.30;99.90;;;;;;5114531;28;20016;-66
2022/01/19 07:07:20;;;;;;;21.53;10.53;;;1.30;99.90;;;;;;5113149;28;20336;-67
2022/01/19 07:09:47;;;;;;;20.65;10.18;;;1.30;99.90;;;;;;5113116;28;20028;-66
2022/01/19 07:12:13;;;;;;;21.13;11.80;;;1.20;99.90;;;;;;5114431;28;20032;-67
2022/01/19 07:14:39;;;;;;;17.30;10.32;;;1.20;99.90;;;;;;5114502;28;20035;-65
2022/01/19 07:17:05;;;;;;;16.63;9.68;;;1.20;99.90;;;;;;5114313;28;20480;-66
2022/01/19 07:19:31;;;;;;;19.55;11.57;;;1.10;99.90;;;;;;5112983;28;20039;-66
2022/01/19 07:21:57;;;;;;;22.65;11.70;;;1.10;99.90;;;;;;5113085;28;20032;-66
2022/01/19 07:24:23;;;;;;;23.00;11.00;;;1.20;99.90;;;;;;5113337;28;20035;-66
2022/01/19 07:26:48;;;;;;;21.10;11.03;;;1.10;99.90;;;;;;5114186;28;20260;-67
2022/01/19 07:29:14;;;;;;;16.83;10.40;;;1.10;99.90;;;;;;5113883;28;20027;-67
2022/01/19 07:31:41;;;;;;;21.70;13.10;;;1.20;99.90;;;;;;5112665;28;20286;-67
2022/01/19 07:34:08;;;;;;;21.58;10.68;;;1.20;99.90;;;;;;5114311;28;20057;-67
2022/01/19 07:36:34;;;;;;;17.73;11.45;;;1.20;99.90;;;;;;5114385;28;20030;-67
2022/01/19 07:39:00;;;;;;;20.30;11.30;;;1.30;99.90;;;;;;5113377;28;20110;-66
2022/01/19 07:41:25;;;;;;;22.27;11.23;;;1.50;99.90;;;;;;5114187;28;20752;-66
2022/01/19 07:43:51;;;;;;;21.17;11.37;;;1.50;99.90;;;;;;5113187;28;20080;-65
2022/01/19 07:46:17;;;;;;;18.70;11.17;;;1.60;99.90;;;;;;5113803;28;20092;-66
2022/01/19 07:48:43;;;;;;;23.48;13.57;;;1.40;99.90;;;;;;5113205;28;20364;-67
2022/01/19 07:51:09;;;;;;;22.55;12.18;;;1.30;99.90;;;;;;5113707;28;20027;-66
2022/01/19 07:53:35;;;;;;;22.37;11.87;;;1.30;99.90;;;;;;5113866;28;20044;-67
2022/01/19 07:56:00;;;;;;;22.53;12.60;;;1.30;99.90;;;;;;5113541;28;20250;-67
2022/01/19 07:58:26;;;;;;;20.47;12.07;;;1.20;99.90;;;;;;5112519;28;20032;-66
2022/01/19 08:00:51;;;;;;;20.03;11.60;;;1.40;99.90;;;;;;5113765;28;20034;-67
2022/01/19 08:03:17;;;;;;;22.77;12.60;;;1.40;99.90;;;;;;5113593;28;20023;-66
2022/01/19 08:05:44;;;;;;;25.93;13.47;;;1.40;99.90;;;;;;5113613;28;20031;-67
2022/01/19 08:08:10;;;;;;;22.48;13.82;;;1.40;99.90;;;;;;5112515;28;20020;-65
2022/01/19 08:10:35;;;;;;;25.33;13.52;;;1.40;99.90;;;;;;5114186;28;20462;-65
2022/01/19 08:13:03;;;;;;;23.90;13.27;;;1.40;99.90;;;;;;5112371;28;20027;-66
2022/01/19 08:15:30;;;;;;;22.75;12.50;;;1.40;99.90;;;;;;5113408;28;20023;-66
2022/01/19 08:17:56;;;;;;;20.60;12.45;;;1.40;99.90;;;;;;5112045;28;20027;-66
2022/01/19 08:20:22;;;;;;;22.02;12.23;;;1.40;99.90;;;;;;5113316;28;20471;-66
2022/01/19 08:22:47;;;;;;;21.02;13.15;;;1.50;99.90;;;;;;5113314;28;20444;-67
2022/01/19 08:25:13;;;;;;;23.70;12.67;;;1.50;99.90;;;;;;5111971;28;20016;-67
2022/01/19 08:27:39;;;;;;;21.43;12.70;;;1.60;99.90;;;;;;5113285;28;20024;-67
2022/01/19 08:30:07;;;;;;;24.13;12.80;;;1.70;99.90;;;;;;5113311;28;20352;-66
2022/01/19 08:32:35;;;;;;;22.08;13.25;;;1.80;99.90;;;;;;5113695;28;20042;-67
2022/01/19 08:35:02;;;;;;;25.70;13.43;;;1.70;99.90;;;;;;5112512;28;20020;-67
2022/01/19 08:37:28;;;;;;;34.65;17.48;;;1.80;99.90;;;;;;5117564;28;20107;-67
2022/01/19 08:39:54;;;;;;;28.63;13.80;;;1.70;99.90;;;;;;5115987;28;20052;-67
2022/01/19 08:42:20;;;;;;;27.98;14.82;;;1.70;99.90;;;;;;5115863;28;20103;-70
2022/01/19 08:44:45;;;;;;;24.00;13.35;;;1.70;99.90;;;;;;5115798;28;20031;-67
2022/01/19 08:47:11;;;;;;;25.43;13.77;;;1.70;99.90;;;;;;5115721;28;20051;-67
2022/01/19 08:49:37;;;;;;;24.23;13.53;;;1.70;99.90;;;;;;5117366;28;20023;-66
2022/01/19 08:52:04;;;;;;;24.57;13.67;;;1.80;99.90;;;;;;5116974;28;20035;-66
2022/01/19 08:54:30;;;;;;;28.25;13.38;;;1.80;99.90;;;;;;5115275;28;20337;-66
2022/01/19 08:56:56;;;;;;;22.05;12.65;;;1.80;99.90;;;;;;5117233;28;20096;-67
2022/01/19 08:59:22;;;;;;;23.65;12.80;;;1.80;99.90;;;;;;5117000;28;20034;-66
2022/01/19 09:01:47;;;;;;;22.03;11.93;;;1.80;99.90;;;;;;5115493;28;20488;-67
2022/01/19 09:04:13;;;;;;;23.10;11.90;;;1.90;99.90;;;;;;5116531;28;20034;-66
2022/01/19 09:06:39;;;;;;;21.67;12.73;;;2.00;99.90;;;;;;5115566;28;20024;-66
2022/01/19 09:09:04;;;;;;;23.17;12.40;;;2.10;99.90;;;;;;5116739;28;20031;-66
2022/01/19 09:11:30;;;;;;;23.33;12.67;;;2.30;99.90;;;;;;5116739;28;20023;-66
2022/01/19 09:13:57;;;;;;;19.50;11.10;;;2.30;99.90;;;;;;5116815;28;20104;-67
2022/01/19 09:16:22;;;;;;;;;;;2.30;99.90;;;;;;5117055;28;20046;-66
2022/01/19 09:18:48;;;;;;;20.92;11.43;;;2.30;99.90;;;;;;5116743;28;19904;-66
2022/01/19 09:21:14;;;;;;;22.43;11.80;;;2.50;99.90;;;;;;5116428;28;20026;-66
2022/01/19 09:23:39;;;;;;;23.20;12.50;;;2.50;99.90;;;;;;5114853;28;20028;-67
2022/01/19 09:26:05;;;;;;;18.77;12.23;;;2.50;99.90;;;;;;5116273;28;20158;-66
2022/01/19 09:28:31;;;;;;;22.57;12.33;;;2.40;99.90;;;;;;5116228;28;20060;-66
2022/01/19 09:31:00;;;;;;;20.17;11.50;;;2.50;99.90;;;;;;5116399;28;20098;-67
2022/01/19 09:33:29;;;;;;;23.45;12.10;;;2.50;99.90;;;;;;5116235;28;20046;-66
2022/01/19 09:38:27;;;;;;;23.85;11.30;;;2.60;99.90;;;;;;5116362;28;20476;-66
2022/01/19 09:40:54;;;;;;;23.60;12.23;;;2.60;99.90;;;;;;5116329;28;20164;-67
2022/01/19 09:43:23;;;;;;;19.25;11.77;;;2.70;99.90;;;;;;5116139;28;20490;-66
2022/01/19 09:45:50;;;;;;;20.40;11.18;;;2.80;99.90;;;;;;5116384;28;20055;-66
2022/01/19 09:48:16;;;;;;;20.27;11.05;;;2.80;99.90;;;;;;5115127;28;20037;-67
2022/01/19 09:50:42;;;;;;;19.20;11.07;;;2.90;99.90;;;;;;5115687;28;20020;-67
2022/01/19 09:53:08;;;;;;;25.02;11.50;;;3.00;99.90;;;;;;5116161;28;20085;-67
2022/01/19 09:55:38;;;;;;;17.98;10.57;;;3.10;99.90;;;;;;5115639;28;20122;-67
2022/01/19 09:58:04;;;;;;;21.10;11.07;;;3.20;99.90;;;;;;5115657;28;20085;-66
2022/01/19 10:00:30;;;;;;;18.73;10.73;;;3.30;99.90;;;;;;5115733;28;20040;-66
2022/01/19 10:03:14;;;;;;;19.47;9.87;;;3.60;99.90;;;;;;5116028;28;20391;-66
2022/01/19 10:05:58;;;;;;;18.00;9.82;;;3.80;99.90;;;;;;5115115;28;20024;-66
2022/01/19 10:08:47;;;;;;;18.10;10.38;;;4.00;99.90;;;;;;5116574;28;20422;-66
2022/01/19 10:16:59;;;;;;;16.52;10.18;;;3.90;99.90;;;;;;5116387;28;20072;-66
2022/01/19 10:19:39;;;;;;;19.85;10.05;;;4.00;99.90;;;;;;5115731;28;20035;-66
2022/01/19 10:22:11;;;;;;;20.85;11.27;;;4.10;99.90;;;;;;5113970;28;20023;-66
2022/01/19 10:24:48;;;;;;;19.05;10.63;;;4.30;99.90;;;;;;5113868;28;20369;-65
2022/01/19 10:27:18;;;;;;;20.02;10.43;;;4.50;99.90;;;;;;5115637;28;20031;-67
2022/01/19 10:29:44;;;;;;;19.85;11.45;;;4.50;99.90;;;;;;5115038;28;20539;-67
2022/01/19 10:32:10;;;;;;;15.52;9.32;;;4.60;99.90;;;;;;5115107;28;20100;-67
2022/01/19 10:34:35;;;;;;;20.83;10.03;;;4.80;99.90;;;;;;5115128;28;20035;-66
2022/01/19 10:37:04;;;;;;;29.77;12.57;;;4.70;99.90;;;;;;5115055;28;20026;-66
2022/01/19 10:39:42;;;;;;;18.55;10.68;;;4.80;99.90;;;;;;5115128;28;20108;-65
2022/01/19 10:42:11;;;;;;;21.05;11.82;;;4.90;99.90;;;;;;5115051;28;20479;-65
2022/01/19 10:44:44;;;;;;;18.05;10.02;;;5.20;99.90;;;;;;5114461;27;20038;-66
2022/01/19 10:47:12;;;;;;;16.73;10.02;;;5.30;99.90;;;;;;5114969;28;20098;-66
2022/01/19 10:49:54;;;;;;;17.27;10.23;;;5.60;99.90;;;;;;5114890;28;20023;-66
2022/01/19 10:52:26;;;;;;;16.70;9.60;;;5.70;99.90;;;;;;5115046;28;20015;-67
2022/01/19 10:54:52;;;;;;;17.95;10.23;;;5.90;99.90;;;;;;5114932;28;20406;-66
2022/01/19 10:57:18;;;;;;;19.63;10.75;;;5.90;99.90;;;;;;5115129;28;20094;-67
2022/01/19 10:59:44;;;;;;;21.58;11.40;;;6.00;99.90;;;;;;5114709;28;20104;-67
2022/01/19 11:02:12;;;;;;;16.95;9.43;;;6.10;99.90;;;;;;5114626;28;20036;-65
2022/01/19 11:04:39;;;;;;;19.02;10.32;;;6.20;99.90;;;;;;5114499;28;20028;-66
2022/01/19 11:07:08;;;;;;;17.60;10.25;;;6.20;99.90;;;;;;5115310;27;20373;-66
2022/01/19 11:09:44;;;;;;;18.52;9.40;;;6.20;99.90;;;;;;5114167;28;20496;-67
2022/01/19 11:12:13;;;;;;;15.50;9.82;;;6.20;99.90;;;;;;5114676;28;20537;-66
2022/01/19 11:14:40;;;;;;;15.80;10.48;;;6.30;99.90;;;;;;5114865;28;20110;-66
2022/01/19 11:17:07;;;;;;;17.52;9.95;;;6.40;99.90;;;;;;5113121;28;20101;-66
2022/01/19 11:19:39;;;;;;;;;;;6.50;99.90;;;;;;5114917;28;20136;-67
2022/01/19 11:22:05;;;;;;;17.38;9.77;;;6.40;99.90;;;;;;5112875;28;19927;-67
2022/01/19 11:25:04;;;;;;;18.30;9.93;;;6.40;99.90;;;;;;5114003;28;20476;-67
2022/01/19 11:27:38;;;;;;;17.90;9.77;;;6.40;99.90;;;;;;5112436;28;20020;-67
2022/01/19 11:30:22;;;;;;;15.30;9.35;;;6.50;99.90;;;;;;5112341;28;20503;-66
2022/01/19 11:33:24;;;;;;;15.85;8.98;;;6.40;99.90;;;;;;5114047;28;20028;-67
2022/01/19 11:35:54;;;;;;;14.93;8.68;;;6.50;99.90;;;;;;5113662;28;20022;-67
2022/01/19 11:38:37;;;;;;;17.25;8.93;;;6.60;99.90;;;;;;5113697;28;20016;-66
2022/01/19 11:41:09;;;;;;;15.45;8.95;;;6.70;99.90;;;;;;5113859;28;20031;-67
2022/01/19 11:43:47;;;;;;;16.15;10.15;;;6.60;99.90;;;;;;5113928;28;20077;-66
2022/01/19 11:46:34;;;;;;;16.98;9.10;;;6.50;99.90;;;;;;5113648;28;20064;-66
2022/01/19 11:49:02;;;;;;;16.60;9.53;;;6.50;99.90;;;;;;5112304;28;20020;-67
2022/01/19 11:51:36;;;;;;;17.77;10.77;;;6.50;99.90;;;;;;5114132;28;20359;-66
2022/01/19 11:54:05;;;;;;;13.60;8.98;;;6.40;99.90;;;;;;5113872;28;20034;-66
2022/01/19 11:56:31;;;;;;;16.75;9.88;;;6.40;99.90;;;;;;5112108;28;20042;-66
2022/01/19 11:59:09;;;;;;;17.75;11.18;;;6.30;99.90;;;;;;5113731;28;20027;-67
2022/01/19 12:01:37;;;;;;;17.45;10.50;;;6.10;99.90;;;;;;5113319;28;20047;-67
2022/01/19 12:04:36;;;;;;;17.52;10.02;;;6.10;99.90;;;;;;5113637;28;20055;-67
2022/01/19 12:07:02;;;;;;;19.83;10.57;;;6.00;99.90;;;;;;5113372;28;20020;-67
2022/01/19 12:09:27;;;;;;;18.27;10.33;;;6.00;99.90;;;;;;5112058;28;20019;-66
2022/01/19 12:12:13;;;;;;;17.17;10.60;;;5.90;99.90;;;;;;5112986;28;20492;-69
2022/01/19 12:14:39;;;;;;;23.23;11.57;;;5.80;99.90;;;;;;5112254;28;20023;-65
2022/01/19 12:17:14;;;;;;;18.75;10.65;;;5.70;99.90;;;;;;5111885;28;20111;-66
2022/01/19 12:19:42;;;;;;;19.65;10.57;;;5.70;99.90;;;;;;5112108;28;20033;-66
2022/01/19 12:22:22;;;;;;;18.48;10.50;;;5.60;99.90;;;;;;5112091;28;20063;-66
2022/01/19 12:25:14;;;;;;;17.05;10.13;;;5.60;99.90;;;;;;5113471;28;20024;-66
2022/01/19 12:27:47;;;;;;;22.33;11.15;;;5.60;99.90;;;;;;5111769;28;20096;-67
2022/01/19 12:30:16;;;;;;;18.05;10.35;;;5.60;99.90;;;;;;5113527;28;20030;-66
2022/01/19 12:32:46;;;;;;;17.88;10.93;;;5.70;99.90;;;;;;5111980;28;20022;-66
2022/01/19 12:35:23;;;;;;;20.83;10.82;;;5.70;99.90;;;;;;5113373;28;20361;-66
2022/01/19 12:37:56;;;;;;;18.33;10.35;;;5.70;99.90;;;;;;5113795;28;20020;-66
2022/01/19 12:40:25;;;;;;;16.45;10.40;;;5.70;99.90;;;;;;5113203;28;20020;-66
2022/01/19 12:42:57;;;;;;;22.60;10.57;;;5.70;99.90;;;;;;5113593;28;20020;-66
2022/01/19 12:45:26;;;;;;;20.88;11.57;;;5.70;99.90;;;;;;5113227;28;20093;-69
2022/01/19 12:47:59;;;;;;;20.42;11.55;;;5.70;99.90;;;;;;5111654;28;20433;-69
2022/01/19 12:50:28;;;;;;;19.50;11.85;;;5.70;99.90;;;;;;5116924;28;20050;-70
2022/01/19 12:52:57;;;;;;;19.40;11.15;;;5.70;99.90;;;;;;5116731;28;20015;-70
2022/01/19 12:55:29;;;;;;;18.27;11.15;;;5.60;99.90;;;;;;5112294;28;20096;-70
2022/01/19 12:57:56;;;;;;;23.00;11.93;;;5.60;99.90;;;;;;5111768;28;20027;-70
2022/01/19 13:00:26;;;;;;;21.25;12.50;;;5.50;99.90;;;;;;5111730;28;20019;-69
2022/01/19 13:02:55;;;;;;;19.05;11.38;;;5.50;99.90;;;;;;5113325;28;20020;-69
2022/01/19 13:05:22;;;;;;;21.92;11.52;;;5.50;99.90;;;;;;5111792;28;20016;-69
2022/01/19 13:07:54;;;;;;;20.20;10.85;;;5.50;99.90;;;;;;5113241;28;20031;-68
2022/01/19 13:15:22;;;;;;;21.05;11.55;;;5.50;99.90;;;;;;5114073;28;20081;-71
2022/01/19 13:17:51;;;;;;;20.67;12.88;;;5.40;99.90;;;;;;5112782;28;20066;-72
2022/01/19 13:20:19;;;;;;;24.02;12.30;;;5.40;99.90;;;;;;5112080;28;20020;-72
2022/01/19 13:22:53;;;;;;;26.13;13.43;;;5.40;99.90;;;;;;5115153;28;20027;-71
2022/01/19 13:25:22;;;;;;;23.52;13.30;;;5.30;99.90;;;;;;5117321;28;20064;-72
2022/01/19 13:27:51;;;;;;;21.63;12.27;;;5.30;99.90;;;;;;5116025;28;20351;-72
2022/01/19 13:30:17;;;;;;;23.25;12.13;;;5.30;99.90;;;;;;5115146;28;20404;-71
2022/01/19 13:32:43;;;;;;;21.75;12.65;;;5.30;99.90;;;;;;5115169;28;20420;-71
2022/01/19 13:35:11;;;;;;;23.67;12.60;;;5.30;99.90;;;;;;5116752;28;20023;-71
2022/01/19 13:37:51;;;;;;;26.48;13.23;;;5.30;99.90;;;;;;5116301;28;20016;-70
2022/01/19 13:40:31;;;;;;;24.95;12.32;;;5.30;99.90;;;;;;5116459;28;20016;-70
2022/01/19 13:43:04;;;;;;;22.90;12.63;;;5.30;99.90;;;;;;5116310;28;20047;-70
2022/01/19 13:50:43;;;;;;;23.45;13.35;;;5.30;99.90;;;;;;5117298;28;20015;-73
2022/01/19 13:53:10;;;;;;;27.70;14.13;;;5.30;99.90;;;;;;5117899;28;20027;-71
2022/01/19 13:55:35;;;;;;;;;;;5.20;99.90;;;;;;5115511;28;20034;-71
2022/01/19 13:58:12;;;;;;;22.58;12.93;;;5.20;99.90;;;;;;5114630;28;19903;-71
2022/01/19 14:01:04;;;;;;;26.90;13.70;;;5.20;99.90;;;;;;5115043;28;20147;-71
2022/01/19 14:03:48;;;;;;;27.50;14.50;;;5.10;99.90;;;;;;5115715;28;20020;-71
2022/01/19 14:06:34;;;;;;;25.52;14.52;;;5.10;99.90;;;;;;5114399;28;20475;-72
2022/01/19 14:09:08;;;;;;;26.25;14.32;;;5.10;99.90;;;;;;5116234;28;20016;-71
2022/01/19 14:11:35;;;;;;;26.05;13.93;;;5.00;99.90;;;;;;5115829;28;20019;-71
2022/01/19 14:14:02;;;;;;;;;;;5.00;99.90;;;;;;5116210;27;20176;-71
2022/01/19 14:16:32;;;;;;;26.63;14.30;;;5.00;99.90;;;;;;5114553;28;20436;-71
2022/01/19 14:19:21;;;;;;;27.23;14.32;;;5.00;99.90;;;;;;5114474;28;20289;-72
2022/01/19 14:22:07;;;;;;;27.17;14.48;;;5.00;99.90;;;;;;5113969;28;20030;-72
2022/01/19 14:25:11;;;;;;;29.38;14.57;;;5.00;99.90;;;;;;5115251;27;20032;-71
2022/01/19 14:27:38;;;;;;;26.13;12.88;;;5.00;99.90;;;;;;5106273;28;20031;-73
2022/01/19 14:30:16;;;;;;;27.70;14.85;;;5.00;99.90;;;;;;5115137;28;20020;-70
2022/01/19 14:32:47;;;;;;;28.80;14.35;;;5.00;99.90;;;;;;5113944;28;20087;-70
2022/01/19 14:35:19;;;;;;;25.25;13.32;;;5.00;99.90;;;;;;5116061;28;20054;-70